createdAt,value
2023-04-16T00:01:41.264Z,21.40
2023-04-16T00:04:09.373Z,19.80
2023-04-16T00:06:37.654Z,20.00
2023-04-16T00:09:07.580Z,19.90
2023-04-16T00:11:36.100Z,19.90
2023-04-16T00:14:04.878Z,20.10
2023-04-16T00:16:33.290Z,21.70
2023-04-16T00:19:01.121Z,20.90
2023-04-16T00:21:29.142Z,20.70
2023-04-16T00:23:56.976Z,18.60
2023-04-16T00:26:25.301Z,19.90
2023-04-16T00:31:31.891Z,21.40
2023-04-16T00:34:00.016Z,22.60
2023-04-16T00:36:28.410Z,21.00
2023-04-16T00:38:56.397Z,20.20
2023-04-16T00:41:24.359Z,21.60
2023-04-16T00:43:52.513Z,19.50
2023-04-16T00:46:21.367Z,20.40
2023-04-16T00:48:49.509Z,20.60
2023-04-16T00:51:18.564Z,21.60
2023-04-16T00:53:46.909Z,21.00
2023-04-16T00:56:15.635Z,22.20
2023-04-16T00:58:44.506Z,21.00
2023-04-16T01:01:14.631Z,20.80
2023-04-16T01:03:46.101Z,20.60
2023-04-16T01:06:14.270Z,18.20
2023-04-16T01:08:42.337Z,20.50
2023-04-16T01:11:11.097Z,19.10
2023-04-16T01:13:39.820Z,18.40
2023-04-16T01:16:08.806Z,20.30
2023-04-16T01:18:36.988Z,20.70
2023-04-16T01:21:05.146Z,17.60
2023-04-16T01:23:33.283Z,18.20
2023-04-16T01:26:01.452Z,17.90
2023-04-16T01:28:29.939Z,18.80
2023-04-16T01:30:58.190Z,20.80
2023-04-16T01:33:40.908Z,18.70
2023-04-16T01:36:08.898Z,20.00
2023-04-16T01:38:36.878Z,19.30
2023-04-16T01:41:04.771Z,17.50
2023-04-16T01:43:32.675Z,20.10
2023-04-16T01:46:33.566Z,18.80
2023-04-16T01:49:02.094Z,18.90
2023-04-16T01:53:58.401Z,19.00
2023-04-16T01:56:26.657Z,14.40
2023-04-16T01:58:54.532Z,18.50
2023-04-16T02:01:22.697Z,16.00
2023-04-16T02:03:51.492Z,19.90
2023-04-16T02:06:19.959Z,21.60
2023-04-16T02:08:48.179Z,19.00
2023-04-16T02:11:16.084Z,19.50
2023-04-16T02:13:44.814Z,18.70
2023-04-16T02:16:14.218Z,17.40
2023-04-16T02:18:46.625Z,17.00
2023-04-16T02:21:16.338Z,18.90
2023-04-16T02:23:47.634Z,20.00
2023-04-16T02:26:15.717Z,19.20
2023-04-16T02:28:44.466Z,18.70
2023-04-16T02:31:13.233Z,17.70
2023-04-16T02:33:44.650Z,17.50
2023-04-16T02:36:12.943Z,16.40
2023-04-16T02:38:40.878Z,18.70
2023-04-16T02:41:09.195Z,19.40
2023-04-16T02:43:37.098Z,19.60
2023-04-16T02:48:33.983Z,17.90
2023-04-16T02:53:31.010Z,18.30
2023-04-16T02:55:59.023Z,16.70
2023-04-16T02:58:27.155Z,17.40
2023-04-16T03:00:55.364Z,18.10
2023-04-16T03:03:23.647Z,17.40
2023-04-16T03:05:51.606Z,18.50
2023-04-16T03:08:19.612Z,16.40
2023-04-16T03:10:47.824Z,16.10
2023-04-16T03:13:16.190Z,16.60
2023-04-16T03:15:51.898Z,16.90
2023-04-16T03:18:20.318Z,16.10
2023-04-16T03:20:53.925Z,18.50
2023-04-16T03:23:23.064Z,17.00
2023-04-16T03:25:51.431Z,17.00
2023-04-16T03:28:20.475Z,17.10
2023-04-16T03:30:52.938Z,15.20
2023-04-16T03:33:21.001Z,15.50
2023-04-16T03:35:57.237Z,14.00
2023-04-16T03:38:26.661Z,15.20
2023-04-16T03:40:56.520Z,16.40
2023-04-16T03:43:24.677Z,14.10
2023-04-16T03:45:52.814Z,15.20
2023-04-16T03:48:23.683Z,14.80
2023-04-16T03:50:51.696Z,15.20
2023-04-16T03:53:21.470Z,15.50
2023-04-16T03:55:51.496Z,14.50
2023-04-16T03:58:20.193Z,15.80
2023-04-16T04:00:48.527Z,15.20
2023-04-16T04:03:18.656Z,15.60
2023-04-16T04:05:48.363Z,16.00
2023-04-16T04:08:20.831Z,14.80
2023-04-16T04:10:48.877Z,14.20
2023-04-16T04:13:17.383Z,15.10
2023-04-16T04:15:45.335Z,13.60
2023-04-16T04:18:13.158Z,15.30
2023-04-16T04:20:41.378Z,16.00
2023-04-16T04:23:09.605Z,14.50
2023-04-16T04:25:37.742Z,13.40
2023-04-16T04:28:05.706Z,13.90
2023-04-16T04:30:35.837Z,15.30
2023-04-16T04:33:04.025Z,13.70
2023-04-16T04:35:32.345Z,14.40
2023-04-16T04:38:03.248Z,12.30
2023-04-16T04:40:31.544Z,13.90
2023-04-16T04:42:59.664Z,13.90
2023-04-16T04:45:28.501Z,12.70
2023-04-16T04:47:58.271Z,13.70
2023-04-16T04:50:26.510Z,13.40
2023-04-16T04:52:54.468Z,13.90
2023-04-16T04:55:22.848Z,12.60
2023-04-16T04:57:51.697Z,14.00
2023-04-16T05:00:21.026Z,12.90
2023-04-16T05:02:53.966Z,12.60
2023-04-16T05:05:22.334Z,11.00
2023-04-16T05:07:50.652Z,11.70
2023-04-16T05:10:18.563Z,11.90
2023-04-16T05:12:50.565Z,11.90
2023-04-16T05:15:18.386Z,12.80
2023-04-16T05:17:46.469Z,11.60
2023-04-16T05:20:14.411Z,13.00
2023-04-16T05:22:42.340Z,12.60
2023-04-16T05:25:11.169Z,13.70
2023-04-16T05:27:39.324Z,11.90
2023-04-16T05:30:07.810Z,12.90
2023-04-16T05:32:36.949Z,12.50
2023-04-16T05:35:05.252Z,13.90
2023-04-16T05:37:34.151Z,11.60
2023-04-16T05:40:02.519Z,11.40
2023-04-16T05:42:31.102Z,12.40
2023-04-16T05:44:59.100Z,13.00
2023-04-16T05:47:26.980Z,12.80
2023-04-16T05:49:54.959Z,12.90
2023-04-16T05:52:22.839Z,13.60
2023-04-16T05:54:51.164Z,13.20
2023-04-16T05:57:19.048Z,13.80
2023-04-16T05:59:46.939Z,12.40
2023-04-16T06:02:14.989Z,11.50
2023-04-16T06:04:42.984Z,12.30
2023-04-16T06:07:10.882Z,12.40
2023-04-16T06:12:07.370Z,13.30
2023-04-16T06:14:35.801Z,14.40
2023-04-16T06:17:03.681Z,15.10
2023-04-16T06:19:31.749Z,14.70
2023-04-16T06:21:59.653Z,14.50
2023-04-16T06:24:27.547Z,13.60
2023-04-16T06:26:55.539Z,13.70
2023-04-16T06:29:30.682Z,15.10
2023-04-16T06:32:08.149Z,17.10
2023-04-16T06:34:37.897Z,14.40
2023-04-16T06:37:07.785Z,13.00
2023-04-16T06:39:37.357Z,13.90
2023-04-16T06:42:05.476Z,15.80
2023-04-16T06:44:33.609Z,15.10
2023-04-16T06:47:01.619Z,14.00
2023-04-16T06:49:29.588Z,15.70
2023-04-16T06:51:57.718Z,15.70
2023-04-16T06:54:25.674Z,16.90
2023-04-16T06:56:53.645Z,15.30
2023-04-16T06:59:21.799Z,12.90
2023-04-16T07:01:49.818Z,15.40
2023-04-16T07:04:18.332Z,14.60
2023-04-16T07:06:46.292Z,13.50
2023-04-16T07:09:14.120Z,13.10
2023-04-16T07:11:42.151Z,10.90
2023-04-16T07:14:10.107Z,12.50
2023-04-16T07:16:38.200Z,13.10
2023-04-16T07:19:06.385Z,15.00
2023-04-16T07:24:03.024Z,13.30
2023-04-16T07:26:31.341Z,12.60
2023-04-16T07:28:59.175Z,13.10
2023-04-16T07:31:27.204Z,15.50
2023-04-16T07:33:55.188Z,16.00
2023-04-16T07:36:23.186Z,13.10
2023-04-16T07:41:19.379Z,14.80
2023-04-16T07:43:49.416Z,15.00
2023-04-16T07:46:17.382Z,16.20
2023-04-16T07:48:45.377Z,12.70
2023-04-16T07:51:13.608Z,15.20
2023-04-16T07:53:42.163Z,14.60
2023-04-16T07:58:38.209Z,14.40
2023-04-16T08:01:06.441Z,15.10
2023-04-16T08:06:03.657Z,24.10
2023-04-16T08:08:32.708Z,18.10
2023-04-16T08:11:00.684Z,17.10
2023-04-16T08:16:00.286Z,15.60
2023-04-16T08:18:28.162Z,17.40
2023-04-16T08:20:56.070Z,17.30
2023-04-16T08:23:24.504Z,15.60
2023-04-16T08:25:53.123Z,17.80
2023-04-16T08:28:21.352Z,19.10
2023-04-16T08:30:49.512Z,20.10
2023-04-16T08:33:17.636Z,21.60
2023-04-16T08:35:45.497Z,19.40
2023-04-16T08:38:13.374Z,18.20
2023-04-16T08:40:41.509Z,19.00
2023-04-16T08:43:13.790Z,18.90
2023-04-16T08:45:43.088Z,22.50
2023-04-16T08:48:11.807Z,21.00
2023-04-16T08:50:39.859Z,18.70
2023-04-16T08:53:07.791Z,18.40
2023-04-16T08:55:43.944Z,19.30
2023-04-16T08:58:14.571Z,20.00
2023-04-16T09:00:43.459Z,20.20
2023-04-16T09:03:11.611Z,20.60
2023-04-16T09:05:39.691Z,22.00
2023-04-16T09:08:07.621Z,22.90
2023-04-16T09:10:35.512Z,20.10
2023-04-16T09:13:05.082Z,17.90
2023-04-16T09:15:34.979Z,20.30
2023-04-16T09:18:03.455Z,20.80
2023-04-16T09:20:31.450Z,19.90
2023-04-16T09:22:59.270Z,20.40
2023-04-16T09:25:27.187Z,21.40
2023-04-16T09:27:55.675Z,18.70
2023-04-16T09:30:26.137Z,20.20
2023-04-16T09:33:14.634Z,20.00
2023-04-16T09:35:47.239Z,19.80
2023-04-16T09:38:16.547Z,19.00
2023-04-16T09:40:44.453Z,18.40
2023-04-16T09:43:18.441Z,18.60
2023-04-16T09:45:53.845Z,18.80
2023-04-16T09:48:31.501Z,18.80
2023-04-16T09:51:00.257Z,20.20
2023-04-16T09:53:29.407Z,22.60
2023-04-16T09:56:05.044Z,21.00
2023-04-16T09:58:36.276Z,19.30
2023-04-16T10:01:07.877Z,21.50
2023-04-16T10:03:37.268Z,18.90
2023-04-16T10:06:15.912Z,18.20
2023-04-16T10:08:49.226Z,20.40
2023-04-16T10:11:18.709Z,17.80
2023-04-16T10:13:46.999Z,18.00
2023-04-16T10:16:14.942Z,19.50
2023-04-16T10:18:43.991Z,18.70
2023-04-16T10:21:12.778Z,19.10
2023-04-16T10:23:41.011Z,19.00
2023-04-16T10:26:08.897Z,17.10
2023-04-16T10:28:38.604Z,18.30
2023-04-16T10:31:07.791Z,17.90
2023-04-16T10:33:38.002Z,17.70
2023-04-16T10:36:23.107Z,19.60
2023-04-16T10:38:52.451Z,20.20
2023-04-16T10:41:20.755Z,19.00
2023-04-16T10:43:49.905Z,18.90
2023-04-16T10:46:31.458Z,19.50
2023-04-16T10:49:03.770Z,20.30
2023-04-16T10:51:36.320Z,18.20
2023-04-16T10:54:19.487Z,18.80
2023-04-16T10:56:47.769Z,19.40
2023-04-16T10:59:18.524Z,19.80
2023-04-16T11:01:48.685Z,19.50
2023-04-16T11:04:19.672Z,19.80
2023-04-16T11:07:07.389Z,17.70
2023-04-16T11:10:02.130Z,19.70
2023-04-16T11:12:39.955Z,20.50
2023-04-16T11:15:15.319Z,19.70
2023-04-16T11:17:47.324Z,21.00
2023-04-16T11:20:18.104Z,19.70
2023-04-16T11:22:49.338Z,21.20
2023-04-16T12:03:44.224Z,21.90
2023-04-16T12:06:12.589Z,22.10
2023-04-16T12:08:40.729Z,20.00
2023-04-16T12:11:08.628Z,20.30
2023-04-16T12:13:40.001Z,20.10
2023-04-16T12:16:19.838Z,20.10
2023-04-16T12:19:04.165Z,18.40
2023-04-16T12:21:39.514Z,19.80
2023-04-16T12:24:08.175Z,19.80
2023-04-16T12:26:38.473Z,18.40
2023-04-16T12:29:20.982Z,22.20
2023-04-16T12:31:50.108Z,21.30
2023-04-16T12:34:18.915Z,22.30
2023-04-16T12:36:47.735Z,21.00
2023-04-16T12:39:15.891Z,18.60
2023-04-16T12:41:43.850Z,19.90
2023-04-16T12:44:20.829Z,20.60
2023-04-16T12:46:48.751Z,22.60
2023-04-16T12:49:16.676Z,22.30
2023-04-16T12:51:44.637Z,22.90
2023-04-16T13:06:21.417Z,20.00
2023-04-16T13:08:49.396Z,20.50
2023-04-16T13:24:47.056Z,19.70
2023-04-16T13:27:17.110Z,19.40
2023-04-16T13:29:45.257Z,18.70
2023-04-16T13:32:14.884Z,19.20
2023-04-16T13:34:43.321Z,18.20
2023-04-16T13:37:11.344Z,19.20
2023-04-16T13:39:39.528Z,19.10
2023-04-16T13:42:07.592Z,18.00
2023-04-16T13:44:42.016Z,18.80
2023-04-16T13:47:11.289Z,17.80
2023-04-16T13:49:39.286Z,18.20
2023-04-16T13:52:07.642Z,19.70
2023-04-16T13:57:04.392Z,17.60
2023-04-16T13:59:35.455Z,17.60
2023-04-16T14:02:19.173Z,17.20
2023-04-16T14:04:49.282Z,17.60
2023-04-16T14:07:17.424Z,17.80
2023-04-16T14:09:54.205Z,19.90
2023-04-16T14:12:22.436Z,19.10
2023-04-16T14:14:55.344Z,19.60
2023-04-16T14:17:49.680Z,19.20
2023-04-16T14:20:21.661Z,18.00
2023-04-16T14:23:05.651Z,17.30
2023-04-16T14:25:51.532Z,18.10
2023-04-16T14:28:19.952Z,16.50
2023-04-16T14:33:29.780Z,16.00
2023-04-16T14:36:02.057Z,17.10
2023-04-16T14:38:33.325Z,16.90
2023-04-16T14:41:04.306Z,16.10
2023-04-16T14:43:33.132Z,15.30
2023-04-16T14:46:02.313Z,15.90
2023-04-16T14:48:31.443Z,16.40
2023-04-16T14:51:04.169Z,14.90
2023-04-16T14:53:54.466Z,16.80
2023-04-16T14:56:22.839Z,17.80
2023-04-16T14:58:51.114Z,16.80
2023-04-16T15:01:19.437Z,16.10
2023-04-16T15:03:49.892Z,16.60
2023-04-16T15:06:19.081Z,15.70
2023-04-16T15:08:51.478Z,17.60
2023-04-16T15:11:34.347Z,16.90
2023-04-16T15:14:05.305Z,17.60
2023-04-16T15:16:34.010Z,16.10
2023-04-16T15:19:04.370Z,16.50
2023-04-16T15:21:33.169Z,16.70
2023-04-16T15:24:01.543Z,16.80
2023-04-16T15:26:36.624Z,17.10
2023-04-16T15:29:07.570Z,18.70
2023-04-16T15:31:35.682Z,17.00
2023-04-16T15:34:11.604Z,20.00
2023-04-16T15:36:40.098Z,19.20
2023-04-16T15:41:50.193Z,19.00
2023-04-16T15:44:26.847Z,19.00
2023-04-16T15:47:24.365Z,19.70
2023-04-16T15:49:58.344Z,20.90
2023-04-16T15:52:35.607Z,21.30
2023-04-16T15:55:12.687Z,22.70
2023-04-16T15:57:46.495Z,21.80
2023-04-16T16:00:19.099Z,20.80
2023-04-16T16:02:51.558Z,20.40
2023-04-16T16:05:37.295Z,19.70
2023-04-16T16:08:15.622Z,18.90
2023-04-16T16:10:44.190Z,19.80
2023-04-16T16:13:14.184Z,19.90
2023-04-16T16:15:43.005Z,21.00
2023-04-16T16:18:13.226Z,20.90
2023-04-16T16:20:41.697Z,19.40
2023-04-16T16:23:12.865Z,19.50
2023-04-16T16:25:44.041Z,20.40
2023-04-16T16:28:15.401Z,21.20
2023-04-16T16:30:43.712Z,23.40
2023-04-16T16:33:12.709Z,20.40
2023-04-16T16:35:40.773Z,18.50
2023-04-16T16:38:09.040Z,17.60
2023-04-16T16:40:40.834Z,19.40
2023-04-16T16:43:09.106Z,22.00
2023-04-16T16:45:38.938Z,19.50
2023-04-16T16:48:07.598Z,18.20
2023-04-16T16:50:36.048Z,17.10
2023-04-16T16:53:08.412Z,19.20
2023-04-16T16:55:36.477Z,19.80
2023-04-16T16:58:04.573Z,18.70
2023-04-16T17:00:34.206Z,17.20
2023-04-16T17:03:02.626Z,18.70
2023-04-16T17:05:33.775Z,18.20
2023-04-16T17:08:05.068Z,17.70
2023-04-16T17:10:33.326Z,19.60
2023-04-16T17:13:04.005Z,20.80
2023-04-16T17:15:32.245Z,19.40
2023-04-16T17:18:06.243Z,19.80
2023-04-16T17:20:36.251Z,19.30
2023-04-16T17:23:07.316Z,18.50
2023-04-16T17:25:38.558Z,18.50
2023-04-16T17:28:06.821Z,19.30
2023-04-16T17:30:36.931Z,18.20
2023-04-16T17:33:05.392Z,20.10
2023-04-16T17:35:36.213Z,21.00
2023-04-16T17:38:04.607Z,20.00
2023-04-16T17:43:01.192Z,19.90
2023-04-16T17:45:36.703Z,19.90
2023-04-16T17:48:05.261Z,20.60
2023-04-16T17:50:34.147Z,18.50
2023-04-16T17:53:03.895Z,18.50
2023-04-16T17:55:32.749Z,18.60
2023-04-16T17:58:02.779Z,19.50
2023-04-16T18:00:31.467Z,20.80
2023-04-16T18:03:00.362Z,21.90
2023-04-16T18:05:28.749Z,20.60
2023-04-16T18:08:01.636Z,18.60
2023-04-16T18:10:31.738Z,19.80
2023-04-16T18:12:59.893Z,18.40
2023-04-16T18:15:28.035Z,18.50
2023-04-16T18:17:56.636Z,19.00
2023-04-16T18:20:24.833Z,17.30
2023-04-16T18:22:53.266Z,18.80
2023-04-16T18:25:32.288Z,18.30
2023-04-16T18:28:03.908Z,19.10
2023-04-16T18:30:32.469Z,17.70
2023-04-16T18:33:26.316Z,18.50
2023-04-16T18:35:49.942Z,19.20
2023-04-16T18:38:18.099Z,18.10
2023-04-16T18:40:47.206Z,16.90
2023-04-16T18:43:16.265Z,15.20
2023-04-16T18:45:44.440Z,15.80
2023-04-16T18:48:13.010Z,17.60
2023-04-16T18:50:41.102Z,17.10
2023-04-16T18:53:09.386Z,17.60
2023-04-16T18:55:38.082Z,18.30
2023-04-16T18:58:06.261Z,16.10
2023-04-16T19:00:35.114Z,17.60
2023-04-16T19:03:07.110Z,16.40
2023-04-16T19:05:36.916Z,16.70
2023-04-16T19:08:05.476Z,15.40
2023-04-16T19:10:34.990Z,18.20
2023-04-16T19:13:04.737Z,19.50
2023-04-16T19:15:34.775Z,17.10
2023-04-16T19:18:03.533Z,16.40
2023-04-16T19:20:37.569Z,15.70
2023-04-16T19:23:06.058Z,17.30
2023-04-16T19:25:36.630Z,16.50
2023-04-16T19:28:05.043Z,15.80
2023-04-16T19:30:33.553Z,16.30
2023-04-16T19:33:01.960Z,17.10
2023-04-16T19:37:58.788Z,15.60
2023-04-16T19:42:55.033Z,16.40
2023-04-16T19:45:26.041Z,16.90
2023-04-16T19:47:54.213Z,18.70
2023-04-16T19:50:23.934Z,16.50
2023-04-16T19:52:52.513Z,19.20
2023-04-16T19:55:23.216Z,21.60
2023-04-16T19:57:51.428Z,17.20
2023-04-16T20:00:22.795Z,16.30
2023-04-16T20:02:51.348Z,18.60
2023-04-16T20:07:52.723Z,16.90
2023-04-16T20:10:21.478Z,21.90
2023-04-16T20:12:50.960Z,17.80
2023-04-16T20:15:19.621Z,18.00
2023-04-16T20:17:48.129Z,19.90
2023-04-16T20:20:16.522Z,21.90
2023-04-16T20:22:45.072Z,20.00
2023-04-16T20:25:14.571Z,16.60
2023-04-16T20:27:43.828Z,18.20
2023-04-16T20:30:12.759Z,18.60
2023-04-16T20:32:41.214Z,20.50
2023-04-16T20:35:11.661Z,18.50
2023-04-16T20:37:42.326Z,16.10
2023-04-16T20:40:11.160Z,18.70
2023-04-16T20:42:40.947Z,18.20
2023-04-16T20:45:09.728Z,18.40
2023-04-16T20:47:38.805Z,16.70
2023-04-16T20:50:07.860Z,15.90
2023-04-16T20:52:38.061Z,15.20
2023-04-16T20:55:08.275Z,17.80
2023-04-16T20:57:36.453Z,16.20
2023-04-16T21:00:08.984Z,15.60
2023-04-16T21:02:37.700Z,19.20
2023-04-16T21:05:09.364Z,21.70
2023-04-16T21:07:38.051Z,16.70
2023-04-16T21:10:10.087Z,15.90
2023-04-16T21:12:38.748Z,18.00
2023-04-16T21:15:10.250Z,14.80
2023-04-16T21:17:39.496Z,19.60
2023-04-16T21:20:10.877Z,15.80
2023-04-16T21:22:39.743Z,18.90
2023-04-16T21:25:08.775Z,17.40
2023-04-16T21:27:37.634Z,19.40
2023-04-16T21:30:06.598Z,20.80
2023-04-16T21:32:35.598Z,19.90
2023-04-16T21:40:00.915Z,16.50
2023-04-16T21:42:31.604Z,21.40
2023-04-16T21:44:59.933Z,20.40
2023-04-16T21:47:27.997Z,21.90
2023-04-16T21:49:56.233Z,16.00
2023-04-16T21:52:24.653Z,18.00
2023-04-16T21:54:53.026Z,15.30
2023-04-16T21:57:21.296Z,19.80
2023-04-16T21:59:49.743Z,16.40
2023-04-16T22:02:18.143Z,21.00
2023-04-16T22:04:46.611Z,25.10
2023-04-16T22:07:17.105Z,18.00
2023-04-16T22:09:45.733Z,16.10
2023-04-16T22:12:14.055Z,20.60
2023-04-16T22:14:52.326Z,13.70
2023-04-16T22:17:30.590Z,14.80
2023-04-16T22:22:29.880Z,13.00
2023-04-16T22:27:26.604Z,13.90
2023-04-16T22:32:23.315Z,14.10
2023-04-16T22:34:52.472Z,12.20
2023-04-16T22:37:20.979Z,12.80
2023-04-16T22:39:49.124Z,14.80
2023-04-16T22:42:17.368Z,13.90
2023-04-16T22:44:46.182Z,13.70
2023-04-16T22:49:42.857Z,13.10
2023-04-16T22:52:11.220Z,12.90
2023-04-16T22:54:39.945Z,12.90
2023-04-16T22:57:10.378Z,13.70
2023-04-16T22:59:38.409Z,14.30
2023-04-16T23:02:06.585Z,14.10
2023-04-16T23:04:35.021Z,14.10
2023-04-16T23:09:32.978Z,13.80
2023-04-16T23:12:02.076Z,16.00
2023-04-16T23:14:31.686Z,13.00
2023-04-16T23:16:59.941Z,14.90
2023-04-16T23:19:28.245Z,14.20
2023-04-16T23:21:56.719Z,13.40
2023-04-16T23:24:24.973Z,13.60
2023-04-16T23:26:53.347Z,14.50
2023-04-16T23:29:21.661Z,14.20
2023-04-16T23:31:50.216Z,12.00
2023-04-16T23:39:14.957Z,13.40
2023-04-16T23:41:43.349Z,14.40
2023-04-16T23:44:11.507Z,14.10
2023-04-16T23:46:41.083Z,14.40
2023-04-16T23:49:09.538Z,13.80
2023-04-16T23:51:38.658Z,15.30
2023-04-16T23:54:07.074Z,14.20
2023-04-16T23:59:03.898Z,14.40
